OHDEN EDLP-EDHL
Flight info
| Callsign | OHDEN |
|---|---|
| Flight time | 0h 56m |
| Altitude | 20000 |
| Route | WRB1X/06 WRB DCT TOLGI DCT SAS DCT DENIX DCT RARUP RARUP2V |
| Aircraft | PC12/L-SDFGRWY/S |
Departure
| Time | 2026-05-08 13:46 |
|---|---|
| Airport | Paderborn Lippstadt Airport (EDLP) |
Arrival
| Time | 2026-05-08 14:42 |
|---|---|
| Airport | Lübeck Blankensee Airport (EDHL) |
| Time | Latitude | Longitude | Altitude | Speed | Heading |
|---|---|---|---|---|---|
| 2026-05-08 13:37 | 51.61060 | 8.61767 | 698 ft | 0 kts | 147° |
| 2026-05-08 13:41 | 51.61059 | 8.61767 | 703 ft | 0 kts | 146° |
| 2026-05-08 13:42 | 51.61036 | 8.61781 | 703 ft | 9 kts | 181° |
| 2026-05-08 13:42 | 51.61001 | 8.61731 | 704 ft | 1 kts | 242° |
| 2026-05-08 13:42 | 51.60995 | 8.61715 | 704 ft | 4 kts | 241° |
| 2026-05-08 13:42 | 51.61007 | 8.61640 | 700 ft | 11 kts | 310° |
| 2026-05-08 13:43 | 51.61086 | 8.61547 | 704 ft | 17 kts | 327° |
| 2026-05-08 13:43 | 51.61120 | 8.61415 | 700 ft | 17 kts | 241° |
| 2026-05-08 13:43 | 51.61051 | 8.61246 | 706 ft | 20 kts | 236° |
| 2026-05-08 13:43 | 51.61001 | 8.61099 | 708 ft | 10 kts | 266° |
| 2026-05-08 13:44 | 51.61051 | 8.61020 | 704 ft | 13 kts | 8° |
| 2026-05-08 13:44 | 51.61138 | 8.61065 | 703 ft | 11 kts | 20° |
| 2026-05-08 13:44 | 51.61210 | 8.61143 | 704 ft | 15 kts | 42° |
| 2026-05-08 13:44 | 51.61315 | 8.61380 | 704 ft | 49 kts | 52° |
| 2026-05-08 13:45 | 51.61577 | 8.62091 | 763 ft | 89 kts | 63° |
| 2026-05-08 13:45 | 51.61973 | 8.62897 | 1058 ft | 105 kts | 64° |
| 2026-05-08 13:45 | 51.62376 | 8.64156 | 1142 ft | 146 kts | 65° |
| 2026-05-08 13:45 | 51.62923 | 8.65706 | 1227 ft | 169 kts | 62° |
| 2026-05-08 13:46 | 51.63653 | 8.67304 | 1296 ft | 185 kts | 54° |
| 2026-05-08 13:46 | 51.64222 | 8.69258 | 1354 ft | 204 kts | 78° |
| 2026-05-08 13:46 | 51.64509 | 8.71567 | 1437 ft | 216 kts | 81° |
| 2026-05-08 13:46 | 51.64797 | 8.73991 | 1520 ft | 224 kts | 80° |
| 2026-05-08 13:47 | 51.64930 | 8.76491 | 1600 ft | 227 kts | 95° |
| 2026-05-08 13:47 | 51.64519 | 8.78957 | 1715 ft | 230 kts | 114° |
| 2026-05-08 13:47 | 51.63672 | 8.81111 | 1873 ft | 227 kts | 124° |
| 2026-05-08 13:47 | 51.62765 | 8.83173 | 2119 ft | 224 kts | 124° |
| 2026-05-08 13:48 | 51.61873 | 8.85218 | 2380 ft | 222 kts | 124° |
| 2026-05-08 13:48 | 51.60989 | 8.87255 | 2643 ft | 222 kts | 124° |
| 2026-05-08 13:48 | 51.60103 | 8.89294 | 2896 ft | 222 kts | 125° |
| 2026-05-08 13:48 | 51.59215 | 8.91331 | 3156 ft | 223 kts | 125° |
| 2026-05-08 13:49 | 51.58324 | 8.93373 | 3415 ft | 223 kts | 125° |
| 2026-05-08 13:49 | 51.57431 | 8.95420 | 3668 ft | 224 kts | 126° |
| 2026-05-08 13:49 | 51.56536 | 8.97470 | 3924 ft | 224 kts | 126° |
| 2026-05-08 13:49 | 51.55642 | 8.99516 | 4183 ft | 224 kts | 126° |
| 2026-05-08 13:50 | 51.54741 | 9.01575 | 4441 ft | 225 kts | 127° |
| 2026-05-08 13:50 | 51.53852 | 9.03608 | 4700 ft | 227 kts | 126° |
| 2026-05-08 13:50 | 51.52949 | 9.05693 | 4967 ft | 227 kts | 124° |
| 2026-05-08 13:50 | 51.52355 | 9.08046 | 5215 ft | 231 kts | 104° |
| 2026-05-08 13:51 | 51.52291 | 9.10636 | 5484 ft | 235 kts | 83° |
| 2026-05-08 13:51 | 51.52785 | 9.13134 | 5735 ft | 238 kts | 64° |
| 2026-05-08 13:51 | 51.53802 | 9.15239 | 5996 ft | 240 kts | 43° |
| 2026-05-08 13:51 | 51.55091 | 9.16928 | 6259 ft | 239 kts | 40° |
| 2026-05-08 13:52 | 51.56396 | 9.18616 | 6522 ft | 241 kts | 40° |
| 2026-05-08 13:52 | 51.57695 | 9.20308 | 6768 ft | 242 kts | 40° |
| 2026-05-08 13:52 | 51.59007 | 9.22014 | 7014 ft | 242 kts | 39° |
| 2026-05-08 13:52 | 51.60319 | 9.23716 | 7259 ft | 243 kts | 39° |
| 2026-05-08 13:53 | 51.61641 | 9.25435 | 7511 ft | 244 kts | 39° |
| 2026-05-08 13:53 | 51.62924 | 9.27103 | 7747 ft | 245 kts | 40° |
| 2026-05-08 13:53 | 51.64258 | 9.28840 | 8001 ft | 246 kts | 39° |
| 2026-05-08 13:53 | 51.65567 | 9.30544 | 8255 ft | 247 kts | 40° |
| 2026-05-08 13:54 | 51.66904 | 9.32287 | 8519 ft | 247 kts | 39° |
| 2026-05-08 13:54 | 51.68240 | 9.34030 | 8778 ft | 247 kts | 39° |
| 2026-05-08 13:54 | 51.69559 | 9.35753 | 9033 ft | 248 kts | 39° |
| 2026-05-08 13:54 | 51.70907 | 9.37516 | 9296 ft | 248 kts | 39° |
| 2026-05-08 13:55 | 51.72257 | 9.39281 | 9564 ft | 248 kts | 39° |
| 2026-05-08 13:55 | 51.73597 | 9.41034 | 9831 ft | 249 kts | 39° |
| 2026-05-08 13:55 | 51.76298 | 9.44571 | 10340 ft | 251 kts | 39° |
| 2026-05-08 13:56 | 51.77655 | 9.46352 | 10581 ft | 252 kts | 38° |
| 2026-05-08 13:56 | 51.79021 | 9.48145 | 10823 ft | 253 kts | 38° |
| 2026-05-08 13:56 | 51.80370 | 9.49917 | 11070 ft | 253 kts | 39° |
| 2026-05-08 13:56 | 51.81741 | 9.51719 | 11322 ft | 255 kts | 38° |
| 2026-05-08 13:57 | 51.83159 | 9.53464 | 11570 ft | 255 kts | 30° |
| 2026-05-08 13:57 | 51.84728 | 9.54767 | 11824 ft | 254 kts | 25° |
| 2026-05-08 13:57 | 51.86309 | 9.56062 | 12079 ft | 255 kts | 26° |
| 2026-05-08 13:57 | 51.87893 | 9.57383 | 12336 ft | 256 kts | 26° |
| 2026-05-08 13:58 | 51.89484 | 9.58707 | 12601 ft | 258 kts | 26° |
| 2026-05-08 13:58 | 51.91082 | 9.60028 | 12859 ft | 259 kts | 25° |
| 2026-05-08 13:58 | 51.92690 | 9.61358 | 13125 ft | 259 kts | 25° |
| 2026-05-08 13:58 | 51.94297 | 9.62690 | 13389 ft | 260 kts | 25° |
| 2026-05-08 13:59 | 51.95911 | 9.64030 | 13660 ft | 261 kts | 25° |
| 2026-05-08 13:59 | 51.97531 | 9.65375 | 13930 ft | 262 kts | 25° |
| 2026-05-08 13:59 | 51.99154 | 9.66724 | 14159 ft | 263 kts | 25° |
| 2026-05-08 13:59 | 52.00811 | 9.68101 | 14181 ft | 271 kts | 25° |
| 2026-05-08 14:00 | 52.02508 | 9.69515 | 14182 ft | 277 kts | 25° |
| 2026-05-08 14:00 | 52.04236 | 9.70956 | 14183 ft | 280 kts | 25° |
| 2026-05-08 14:00 | 52.05972 | 9.72405 | 14183 ft | 282 kts | 25° |
| 2026-05-08 14:00 | 52.07725 | 9.73868 | 14184 ft | 283 kts | 25° |
| 2026-05-08 14:01 | 52.09484 | 9.75337 | 14185 ft | 284 kts | 25° |
| 2026-05-08 14:01 | 52.11219 | 9.76788 | 14184 ft | 285 kts | 25° |
| 2026-05-08 14:01 | 52.13004 | 9.78282 | 14190 ft | 285 kts | 25° |
| 2026-05-08 14:01 | 52.14768 | 9.79759 | 14190 ft | 285 kts | 25° |
| 2026-05-08 14:02 | 52.16534 | 9.81241 | 14189 ft | 285 kts | 25° |
| 2026-05-08 14:02 | 52.18270 | 9.82697 | 14187 ft | 285 kts | 25° |
| 2026-05-08 14:02 | 52.20032 | 9.84177 | 14186 ft | 285 kts | 25° |
| 2026-05-08 14:02 | 52.21793 | 9.85657 | 14186 ft | 285 kts | 25° |
| 2026-05-08 14:03 | 52.23555 | 9.87139 | 14184 ft | 284 kts | 25° |
| 2026-05-08 14:03 | 52.25347 | 9.88598 | 14182 ft | 282 kts | 21° |
| 2026-05-08 14:03 | 52.27168 | 9.89764 | 14183 ft | 282 kts | 19° |
| 2026-05-08 14:03 | 52.28975 | 9.90899 | 14182 ft | 282 kts | 19° |
| 2026-05-08 14:04 | 52.30796 | 9.92062 | 14181 ft | 283 kts | 19° |
| 2026-05-08 14:04 | 52.32636 | 9.93248 | 14182 ft | 283 kts | 19° |
| 2026-05-08 14:04 | 52.34472 | 9.94427 | 14177 ft | 283 kts | 19° |
| 2026-05-08 14:04 | 52.36306 | 9.95602 | 14181 ft | 283 kts | 19° |
| 2026-05-08 14:05 | 52.38139 | 9.96779 | 14176 ft | 283 kts | 20° |
| 2026-05-08 14:05 | 52.39968 | 9.97956 | 14177 ft | 283 kts | 19° |
| 2026-05-08 14:05 | 52.41178 | 9.98735 | 14176 ft | 283 kts | 20° |
| 2026-05-08 14:05 | 52.43007 | 9.99912 | 14173 ft | 282 kts | 20° |
| 2026-05-08 14:06 | 52.44838 | 10.01092 | 14174 ft | 282 kts | 20° |
| 2026-05-08 14:06 | 52.46660 | 10.02267 | 14172 ft | 282 kts | 20° |
| 2026-05-08 14:06 | 52.48490 | 10.03448 | 14172 ft | 282 kts | 20° |
| 2026-05-08 14:06 | 52.50316 | 10.04628 | 14171 ft | 282 kts | 20° |
| 2026-05-08 14:07 | 52.52145 | 10.05810 | 14173 ft | 282 kts | 20° |
| 2026-05-08 14:07 | 52.53965 | 10.06988 | 14173 ft | 282 kts | 20° |
| 2026-05-08 14:07 | 52.55788 | 10.08169 | 14174 ft | 281 kts | 20° |
| 2026-05-08 14:07 | 52.57604 | 10.09346 | 14174 ft | 281 kts | 20° |
| 2026-05-08 14:08 | 52.59424 | 10.10527 | 14178 ft | 281 kts | 19° |
| 2026-05-08 14:08 | 52.61242 | 10.11709 | 14167 ft | 281 kts | 19° |
| 2026-05-08 14:08 | 52.63066 | 10.12894 | 14167 ft | 281 kts | 19° |
| 2026-05-08 14:08 | 52.64881 | 10.14076 | 14174 ft | 281 kts | 19° |
| 2026-05-08 14:09 | 52.66701 | 10.15261 | 14175 ft | 281 kts | 19° |
| 2026-05-08 14:09 | 52.68514 | 10.16443 | 14176 ft | 280 kts | 19° |
| 2026-05-08 14:09 | 52.70325 | 10.17624 | 14177 ft | 280 kts | 19° |
| 2026-05-08 14:09 | 52.72142 | 10.18811 | 14168 ft | 281 kts | 20° |
| 2026-05-08 14:10 | 52.73960 | 10.19998 | 14190 ft | 281 kts | 20° |
| 2026-05-08 14:10 | 52.75779 | 10.21189 | 14181 ft | 281 kts | 20° |
| 2026-05-08 14:10 | 52.77597 | 10.22379 | 14190 ft | 281 kts | 20° |
| 2026-05-08 14:10 | 52.79422 | 10.23574 | 14131 ft | 283 kts | 20° |
| 2026-05-08 14:11 | 52.81244 | 10.24767 | 13953 ft | 288 kts | 20° |
| 2026-05-08 14:11 | 52.83136 | 10.26010 | 13685 ft | 285 kts | 20° |
| 2026-05-08 14:11 | 52.84913 | 10.27183 | 13413 ft | 272 kts | 20° |
| 2026-05-08 14:11 | 52.86625 | 10.28306 | 13145 ft | 258 kts | 20° |
| 2026-05-08 14:12 | 52.88258 | 10.29379 | 12875 ft | 247 kts | 20° |
| 2026-05-08 14:12 | 52.89830 | 10.30417 | 12612 ft | 240 kts | 20° |
| 2026-05-08 14:12 | 52.91352 | 10.31422 | 12340 ft | 234 kts | 21° |
| 2026-05-08 14:12 | 52.92853 | 10.32411 | 12079 ft | 229 kts | 21° |
| 2026-05-08 14:13 | 52.94325 | 10.33381 | 11820 ft | 225 kts | 20° |
| 2026-05-08 14:13 | 52.95769 | 10.34335 | 11567 ft | 222 kts | 21° |
| 2026-05-08 14:13 | 52.97159 | 10.35255 | 11324 ft | 220 kts | 20° |
| 2026-05-08 14:13 | 52.98619 | 10.36221 | 11064 ft | 218 kts | 21° |
| 2026-05-08 14:14 | 53.00024 | 10.37148 | 10819 ft | 217 kts | 21° |
| 2026-05-08 14:14 | 53.01092 | 10.37856 | 10632 ft | 216 kts | 21° |
| 2026-05-08 14:14 | 53.01898 | 10.38390 | 10490 ft | 215 kts | 21° |
| 2026-05-08 14:14 | 53.03258 | 10.39292 | 10251 ft | 214 kts | 21° |
| 2026-05-08 14:15 | 53.04576 | 10.40168 | 10013 ft | 213 kts | 21° |
| 2026-05-08 14:15 | 53.05952 | 10.41083 | 9746 ft | 213 kts | 21° |
| 2026-05-08 14:15 | 53.07323 | 10.41994 | 9479 ft | 212 kts | 21° |
| 2026-05-08 14:15 | 53.08693 | 10.42904 | 9213 ft | 211 kts | 22° |
| 2026-05-08 14:16 | 53.10060 | 10.43814 | 8951 ft | 211 kts | 22° |
| 2026-05-08 14:16 | 53.11421 | 10.44720 | 8693 ft | 210 kts | 22° |
| 2026-05-08 14:16 | 53.12778 | 10.45618 | 8432 ft | 208 kts | 20° |
| 2026-05-08 14:16 | 53.14163 | 10.46244 | 8181 ft | 206 kts | 13° |
| 2026-05-08 14:17 | 53.15558 | 10.46820 | 7929 ft | 207 kts | 14° |
| 2026-05-08 14:17 | 53.16958 | 10.47413 | 7677 ft | 207 kts | 14° |
| 2026-05-08 14:17 | 53.18350 | 10.48008 | 7425 ft | 206 kts | 14° |
| 2026-05-08 14:17 | 53.19738 | 10.48599 | 7177 ft | 206 kts | 14° |
| 2026-05-08 14:18 | 53.21122 | 10.49188 | 6930 ft | 205 kts | 14° |
| 2026-05-08 14:18 | 53.22478 | 10.49766 | 6690 ft | 205 kts | 15° |
| 2026-05-08 14:18 | 53.23866 | 10.50358 | 6434 ft | 204 kts | 15° |
| 2026-05-08 14:18 | 53.25233 | 10.50940 | 6195 ft | 202 kts | 15° |
| 2026-05-08 14:19 | 53.26557 | 10.51503 | 6181 ft | 190 kts | 16° |
| 2026-05-08 14:19 | 53.27797 | 10.52033 | 6180 ft | 177 kts | 16° |
| 2026-05-08 14:19 | 53.28946 | 10.52523 | 6185 ft | 163 kts | 16° |
| 2026-05-08 14:19 | 53.30015 | 10.52980 | 6175 ft | 154 kts | 16° |
| 2026-05-08 14:20 | 53.31028 | 10.53413 | 6180 ft | 149 kts | 16° |
| 2026-05-08 14:20 | 53.32002 | 10.53829 | 6182 ft | 156 kts | 18° |
| 2026-05-08 14:20 | 53.33076 | 10.54290 | 6191 ft | 162 kts | 16° |
| 2026-05-08 14:20 | 53.34188 | 10.54767 | 6190 ft | 167 kts | 16° |
| 2026-05-08 14:21 | 53.35327 | 10.55254 | 6194 ft | 172 kts | 16° |
| 2026-05-08 14:21 | 53.36495 | 10.55756 | 6191 ft | 176 kts | 16° |
| 2026-05-08 14:21 | 53.37683 | 10.56265 | 6190 ft | 176 kts | 16° |
| 2026-05-08 14:21 | 53.38870 | 10.56773 | 6194 ft | 176 kts | 17° |
| 2026-05-08 14:22 | 53.40063 | 10.57285 | 6192 ft | 177 kts | 17° |
| 2026-05-08 14:22 | 53.41252 | 10.57795 | 6190 ft | 177 kts | 17° |
| 2026-05-08 14:22 | 53.42454 | 10.58312 | 6189 ft | 179 kts | 17° |
| 2026-05-08 14:22 | 53.43657 | 10.58829 | 6189 ft | 179 kts | 17° |
| 2026-05-08 14:23 | 53.44870 | 10.59351 | 6195 ft | 181 kts | 16° |
| 2026-05-08 14:23 | 53.46089 | 10.59876 | 6190 ft | 181 kts | 16° |
| 2026-05-08 14:23 | 53.47307 | 10.60400 | 6195 ft | 181 kts | 16° |
| 2026-05-08 14:23 | 53.48451 | 10.60893 | 6190 ft | 181 kts | 17° |
| 2026-05-08 14:24 | 53.49666 | 10.61417 | 6194 ft | 180 kts | 17° |
| 2026-05-08 14:24 | 53.50885 | 10.61943 | 6200 ft | 180 kts | 16° |
| 2026-05-08 14:24 | 53.52113 | 10.62475 | 5979 ft | 181 kts | 18° |
| 2026-05-08 14:24 | 53.53299 | 10.62986 | 5711 ft | 169 kts | 19° |
| 2026-05-08 14:25 | 53.54415 | 10.63466 | 5449 ft | 162 kts | 19° |
| 2026-05-08 14:25 | 53.55480 | 10.63927 | 5198 ft | 156 kts | 20° |
| 2026-05-08 14:25 | 53.56505 | 10.64371 | 4944 ft | 153 kts | 18° |
| 2026-05-08 14:25 | 53.57529 | 10.64814 | 4682 ft | 151 kts | 20° |
| 2026-05-08 14:26 | 53.58538 | 10.65251 | 4419 ft | 149 kts | 20° |
| 2026-05-08 14:26 | 53.59544 | 10.65686 | 4160 ft | 149 kts | 19° |
| 2026-05-08 14:26 | 53.60554 | 10.66125 | 3905 ft | 150 kts | 19° |
| 2026-05-08 14:26 | 53.61568 | 10.66566 | 3651 ft | 151 kts | 18° |
| 2026-05-08 14:27 | 53.62608 | 10.66761 | 3406 ft | 155 kts | 356° |
| 2026-05-08 14:27 | 53.63598 | 10.66050 | 3217 ft | 155 kts | 323° |
| 2026-05-08 14:27 | 53.64221 | 10.64681 | 3210 ft | 144 kts | 294° |
| 2026-05-08 14:27 | 53.64409 | 10.63068 | 3217 ft | 138 kts | 274° |
| 2026-05-08 14:28 | 53.64489 | 10.61495 | 3203 ft | 130 kts | 275° |
| 2026-05-08 14:28 | 53.64570 | 10.59995 | 3200 ft | 128 kts | 275° |
| 2026-05-08 14:28 | 53.64648 | 10.58511 | 3212 ft | 127 kts | 275° |
| 2026-05-08 14:28 | 53.64726 | 10.56998 | 3216 ft | 132 kts | 275° |
| 2026-05-08 14:29 | 53.64807 | 10.55441 | 3213 ft | 134 kts | 275° |
| 2026-05-08 14:29 | 53.64887 | 10.53874 | 3226 ft | 135 kts | 276° |
| 2026-05-08 14:29 | 53.64971 | 10.52242 | 3212 ft | 143 kts | 275° |
| 2026-05-08 14:29 | 53.65054 | 10.50576 | 3205 ft | 141 kts | 276° |
| 2026-05-08 14:30 | 53.65137 | 10.48944 | 3211 ft | 140 kts | 275° |
| 2026-05-08 14:30 | 53.65222 | 10.47291 | 3205 ft | 143 kts | 275° |
| 2026-05-08 14:30 | 53.65305 | 10.45625 | 3209 ft | 145 kts | 276° |
| 2026-05-08 14:30 | 53.65391 | 10.43935 | 3199 ft | 143 kts | 275° |
| 2026-05-08 14:31 | 53.65472 | 10.42284 | 3194 ft | 141 kts | 277° |
| 2026-05-08 14:31 | 53.65729 | 10.40729 | 3207 ft | 137 kts | 305° |
| 2026-05-08 14:31 | 53.66402 | 10.39623 | 3197 ft | 134 kts | 338° |
| 2026-05-08 14:32 | 53.68140 | 10.38605 | 3205 ft | 130 kts | 346° |
| 2026-05-08 14:32 | 53.68994 | 10.38125 | 3181 ft | 129 kts | 347° |
| 2026-05-08 14:32 | 53.69831 | 10.37662 | 3184 ft | 126 kts | 346° |
| 2026-05-08 14:32 | 53.70685 | 10.37195 | 3191 ft | 131 kts | 346° |
| 2026-05-08 14:33 | 53.71565 | 10.36703 | 3204 ft | 136 kts | 347° |
| 2026-05-08 14:33 | 53.72486 | 10.36396 | 3196 ft | 133 kts | 9° |
| 2026-05-08 14:33 | 53.73333 | 10.36870 | 3182 ft | 125 kts | 38° |
| 2026-05-08 14:33 | 53.73902 | 10.37896 | 3179 ft | 116 kts | 64° |
| 2026-05-08 14:34 | 53.74168 | 10.39105 | 3187 ft | 109 kts | 72° |
| 2026-05-08 14:34 | 53.74403 | 10.40290 | 3177 ft | 103 kts | 73° |
| 2026-05-08 14:34 | 53.74628 | 10.41432 | 3198 ft | 102 kts | 75° |
| 2026-05-08 14:34 | 53.74844 | 10.42547 | 3201 ft | 106 kts | 74° |
| 2026-05-08 14:35 | 53.75081 | 10.43767 | 3202 ft | 111 kts | 75° |
| 2026-05-08 14:35 | 53.75315 | 10.44970 | 3202 ft | 104 kts | 75° |
| 2026-05-08 14:35 | 53.75540 | 10.46121 | 3201 ft | 102 kts | 74° |
| 2026-05-08 14:35 | 53.75763 | 10.47267 | 3195 ft | 101 kts | 74° |
| 2026-05-08 14:36 | 53.75982 | 10.48397 | 3193 ft | 99 kts | 75° |
| 2026-05-08 14:36 | 53.76195 | 10.49490 | 3181 ft | 95 kts | 73° |
| 2026-05-08 14:36 | 53.76392 | 10.50501 | 3188 ft | 89 kts | 74° |
| 2026-05-08 14:36 | 53.76582 | 10.51479 | 3181 ft | 86 kts | 74° |
| 2026-05-08 14:37 | 53.76763 | 10.52412 | 3182 ft | 82 kts | 74° |
| 2026-05-08 14:37 | 53.76955 | 10.53396 | 2999 ft | 100 kts | 74° |
| 2026-05-08 14:37 | 53.77184 | 10.54592 | 2755 ft | 112 kts | 74° |
| 2026-05-08 14:37 | 53.77429 | 10.55856 | 2507 ft | 118 kts | 74° |
| 2026-05-08 14:38 | 53.77685 | 10.57182 | 2262 ft | 121 kts | 74° |
| 2026-05-08 14:38 | 53.77931 | 10.58447 | 2176 ft | 104 kts | 72° |
| 2026-05-08 14:38 | 53.78133 | 10.59569 | 2081 ft | 93 kts | 73° |
| 2026-05-08 14:38 | 53.78312 | 10.60617 | 1937 ft | 96 kts | 73° |
| 2026-05-08 14:39 | 53.78485 | 10.61550 | 1780 ft | 78 kts | 72° |
| 2026-05-08 14:39 | 53.78647 | 10.62428 | 1618 ft | 80 kts | 70° |
| 2026-05-08 14:39 | 53.78820 | 10.63271 | 1600 ft | 74 kts | 70° |
| 2026-05-08 14:39 | 53.78986 | 10.64110 | 1497 ft | 76 kts | 72° |
| 2026-05-08 14:40 | 53.79162 | 10.65009 | 1296 ft | 80 kts | 70° |
| 2026-05-08 14:40 | 53.79339 | 10.65884 | 1167 ft | 75 kts | 69° |
| 2026-05-08 14:40 | 53.79505 | 10.66733 | 1010 ft | 80 kts | 70° |
| 2026-05-08 14:40 | 53.79674 | 10.67622 | 953 ft | 82 kts | 69° |
| 2026-05-08 14:41 | 53.79856 | 10.68533 | 781 ft | 81 kts | 70° |
| 2026-05-08 14:41 | 53.80026 | 10.69429 | 560 ft | 82 kts | 65° |
| 2026-05-08 14:41 | 53.80163 | 10.70119 | 361 ft | 81 kts | 66° |
| 2026-05-08 14:41 | 53.80345 | 10.71012 | 114 ft | 74 kts | 59° |
| 2026-05-08 14:42 | 53.80507 | 10.71779 | 62 ft | 66 kts | 62° |
| 2026-05-08 14:42 | 53.80638 | 10.72351 | 55 ft | 27 kts | 70° |
| 2026-05-08 14:42 | 53.80706 | 10.72705 | 56 ft | 35 kts | 62° |
| 2026-05-08 14:42 | 53.80688 | 10.72771 | 57 ft | 20 kts | 251° |
| 2026-05-08 14:43 | 53.80627 | 10.72428 | 55 ft | 29 kts | 252° |
| 2026-05-08 14:43 | 53.80577 | 10.72087 | 52 ft | 17 kts | 265° |
| 2026-05-08 14:43 | 53.80624 | 10.71768 | 57 ft | 36 kts | 289° |
| 2026-05-08 14:43 | 53.80634 | 10.71449 | 58 ft | 31 kts | 251° |
| 2026-05-08 14:44 | 53.80558 | 10.71046 | 56 ft | 41 kts | 253° |
| 2026-05-08 14:44 | 53.80483 | 10.70643 | 52 ft | 37 kts | 252° |
| 2026-05-08 14:44 | 53.80427 | 10.70373 | 52 ft | 13 kts | 253° |
| 2026-05-08 14:44 | 53.80444 | 10.70272 | 53 ft | 3 kts | 326° |
| 2026-05-08 14:45 | 53.80469 | 10.70243 | 55 ft | 0 kts | 324° |